Terminal Aerodrome Forecast
Issued by NWS Central Illinois

Home | Current Version | Previous Version | Text Only | Print | Product List | Glossary On
Versions: 1 2 3 4 5 6 7 8 9 10 11 12 13 14 15 16
000
FTUS43 KILX 262001 AAA
TAFSPI
TAF AMD
KSPI 262001Z 2620/2718 22010KT P6SM VCSH SCT060 BKN150
     FM270000 30007KT P6SM SCT030 BKN060
     FM270500 33008KT P6SM SCT015 BKN035
     FM271400 35010KT P6SM SCT045=

USA.gov is the U.S. government's official web portal to all federal, state and local government web resources and services.